Oviedo en Asturias

latitud = 43° 21' 16''N | longitud = 005° 52' 22''W
231 metros sobre el nivel del mar | datos mensuales

Fecha, hora, temperatura, viento dirección y velocidad, humedad y presión.

  • 21-06-2018 22:00:00 | 17.30°C | Nordeste |10.00 km/h | 99.00% | 983.40 hPa
  • 21-06-2018 21:00:00 | 17.70°C | Nordeste |12.00 km/h | 98.00% | 982.90 hPa
  • 21-06-2018 20:00:00 | 17.90°C | Nordeste |8.00 km/h | 96.00% | 983.10 hPa
  • 21-06-2018 19:00:00 | 18.30°C | Nordeste |12.00 km/h | 93.00% | 982.80 hPa
  • 21-06-2018 18:00:00 | 18.50°C | Nordeste |10.00 km/h | 93.00% | 982.80 hPa
  • 21-06-2018 17:00:00 | 18.80°C | Nordeste |10.00 km/h | 91.00% | 982.70 hPa
  • 21-06-2018 16:00:00 | 19.00°C | Nordeste |12.00 km/h | 90.00% | 982.70 hPa
  • 21-06-2018 15:00:00 | 20.80°C | Este |6.00 km/h | 84.00% | 982.60 hPa
  • 21-06-2018 14:00:00 | 18.90°C | Nordeste |16.00 km/h | 92.00% | 982.70 hPa
  • 21-06-2018 13:00:00 | 20.30°C | Norte |6.00 km/h | 85.00% | 982.70 hPa
  • 21-06-2018 12:00:00 | 20.60°C | Norte |2.00 km/h | 83.00% | 982.50 hPa
  • 21-06-2018 11:00:00 | 19.30°C | Sur |4.00 km/h | 91.00% | 982.60 hPa
  • 21-06-2018 10:00:00 | 18.10°C | Sudeste |3.00 km/h | 98.00% | 982.30 hPa
  • 21-06-2018 09:00:00 | 17.50°C | Norte |3.00 km/h | 100.00% | 982.10 hPa
  • 21-06-2018 08:00:00 | 17.10°C | Oeste |4.00 km/h | 100.00% | 981.90 hPa
  • 21-06-2018 07:00:00 | 17.20°C | Norte |5.00 km/h | 99.00% | 980.90 hPa
  • 21-06-2018 06:00:00 | 17.10°C | Nordeste |9.00 km/h | 99.00% | 981.00 hPa
  • 21-06-2018 05:00:00 | 17.50°C | Este |5.00 km/h | 98.00% | 981.50 hPa
  • 21-06-2018 04:00:00 | 17.50°C | Nordeste |5.00 km/h | 97.00% | 981.20 hPa
  • 21-06-2018 03:00:00 | 17.50°C | Este |6.00 km/h | 96.00% | 981.70 hPa
  • 21-06-2018 02:00:00 | 17.80°C | Este |3.00 km/h | 95.00% | 982.00 hPa
  • 21-06-2018 01:00:00 | 17.90°C | Oeste |4.00 km/h | 95.00% | 982.00 hPa
  • 21-06-2018 00:00:00 | 18.10°C | Nordeste |7.00 km/h | 93.00% | 981.90 hPa
  • 20-06-2018 23:00:00 | 18.50°C | Este |7.00 km/h | 92.00% | 981.30 hPa